sensor_id;sensor_type;location;lat;lon;timestamp;P1;durP1;ratioP1;P2;durP2;ratioP2
82030;SDS011;71592;52.178;4.512;2023-10-08T00:01:52;12.57;;;5.57;;
82030;SDS011;71592;52.178;4.512;2023-10-08T00:04:20;20.52;;;6.38;;
82030;SDS011;71592;52.178;4.512;2023-10-08T00:06:46;11.60;;;5.45;;
82030;SDS011;71592;52.178;4.512;2023-10-08T00:09:17;13.77;;;4.88;;
82030;SDS011;71592;52.178;4.512;2023-10-08T00:11:45;16.60;;;5.40;;
82030;SDS011;71592;52.178;4.512;2023-10-08T00:14:16;15.40;;;5.15;;
82030;SDS011;71592;52.178;4.512;2023-10-08T00:16:46;16.55;;;5.47;;
82030;SDS011;71592;52.178;4.512;2023-10-08T00:19:15;14.80;;;5.90;;
82030;SDS011;71592;52.178;4.512;2023-10-08T00:21:40;13.30;;;6.07;;
82030;SDS011;71592;52.178;4.512;2023-10-08T00:24:09;12.52;;;5.22;;
82030;SDS011;71592;52.178;4.512;2023-10-08T00:26:35;17.75;;;6.18;;
82030;SDS011;71592;52.178;4.512;2023-10-08T00:29:05;18.33;;;5.93;;
82030;SDS011;71592;52.178;4.512;2023-10-08T00:31:46;16.52;;;5.80;;
82030;SDS011;71592;52.178;4.512;2023-10-08T00:34:14;15.25;;;6.25;;
82030;SDS011;71592;52.178;4.512;2023-10-08T00:36:40;14.02;;;6.43;;
82030;SDS011;71592;52.178;4.512;2023-10-08T00:39:06;16.88;;;6.03;;
82030;SDS011;71592;52.178;4.512;2023-10-08T00:41:52;15.48;;;6.00;;
82030;SDS011;71592;52.178;4.512;2023-10-08T00:44:23;12.40;;;5.93;;
82030;SDS011;71592;52.178;4.512;2023-10-08T00:46:54;13.00;;;5.80;;
82030;SDS011;71592;52.178;4.512;2023-10-08T00:49:22;13.63;;;5.82;;
82030;SDS011;71592;52.178;4.512;2023-10-08T00:51:47;17.20;;;5.78;;
82030;SDS011;71592;52.178;4.512;2023-10-08T00:54:21;17.02;;;5.90;;
82030;SDS011;71592;52.178;4.512;2023-10-08T00:56:46;17.15;;;6.35;;
82030;SDS011;71592;52.178;4.512;2023-10-08T00:59:31;17.17;;;5.85;;
82030;SDS011;71592;52.178;4.512;2023-10-08T01:02:03;13.73;;;5.20;;
82030;SDS011;71592;52.178;4.512;2023-10-08T01:04:31;15.30;;;5.57;;
82030;SDS011;71592;52.178;4.512;2023-10-08T01:07:00;14.38;;;5.25;;
82030;SDS011;71592;52.178;4.512;2023-10-08T01:09:27;17.08;;;6.28;;
82030;SDS011;71592;52.178;4.512;2023-10-08T01:12:33;12.82;;;5.30;;
82030;SDS011;71592;52.178;4.512;2023-10-08T01:15:09;14.75;;;5.80;;
82030;SDS011;71592;52.178;4.512;2023-10-08T01:17:49;14.45;;;5.40;;
82030;SDS011;71592;52.178;4.512;2023-10-08T01:20:23;17.83;;;6.20;;
82030;SDS011;71592;52.178;4.512;2023-10-08T01:23:00;15.05;;;5.53;;
82030;SDS011;71592;52.178;4.512;2023-10-08T01:25:29;14.77;;;6.63;;
82030;SDS011;71592;52.178;4.512;2023-10-08T01:27:57;13.18;;;5.78;;
82030;SDS011;71592;52.178;4.512;2023-10-08T01:30:26;11.18;;;5.47;;
82030;SDS011;71592;52.178;4.512;2023-10-08T01:32:52;15.38;;;5.78;;
82030;SDS011;71592;52.178;4.512;2023-10-08T01:35:17;19.53;;;6.43;;
82030;SDS011;71592;52.178;4.512;2023-10-08T01:37:54;13.52;;;5.28;;
82030;SDS011;71592;52.178;4.512;2023-10-08T01:40:21;16.42;;;5.82;;
82030;SDS011;71592;52.178;4.512;2023-10-08T01:42:50;13.77;;;5.90;;
82030;SDS011;71592;52.178;4.512;2023-10-08T01:45:15;16.25;;;6.00;;
82030;SDS011;71592;52.178;4.512;2023-10-08T01:47:42;16.48;;;6.18;;
82030;SDS011;71592;52.178;4.512;2023-10-08T01:50:08;12.02;;;5.47;;
82030;SDS011;71592;52.178;4.512;2023-10-08T01:52:46;14.13;;;5.93;;
82030;SDS011;71592;52.178;4.512;2023-10-08T01:55:11;13.10;;;6.00;;
82030;SDS011;71592;52.178;4.512;2023-10-08T01:57:42;13.18;;;5.93;;
82030;SDS011;71592;52.178;4.512;2023-10-08T02:00:08;15.88;;;6.63;;
82030;SDS011;71592;52.178;4.512;2023-10-08T02:02:34;16.80;;;6.32;;
82030;SDS011;71592;52.178;4.512;2023-10-08T02:04:59;17.35;;;7.13;;
82030;SDS011;71592;52.178;4.512;2023-10-08T02:07:25;14.07;;;5.88;;
82030;SDS011;71592;52.178;4.512;2023-10-08T02:09:50;14.07;;;6.03;;
82030;SDS011;71592;52.178;4.512;2023-10-08T02:12:15;19.00;;;6.35;;
82030;SDS011;71592;52.178;4.512;2023-10-08T02:14:41;14.77;;;5.90;;
82030;SDS011;71592;52.178;4.512;2023-10-08T02:17:06;14.38;;;6.63;;
82030;SDS011;71592;52.178;4.512;2023-10-08T02:19:34;15.20;;;6.43;;
82030;SDS011;71592;52.178;4.512;2023-10-08T02:22:04;12.52;;;6.38;;
82030;SDS011;71592;52.178;4.512;2023-10-08T02:24:34;16.50;;;6.43;;
82030;SDS011;71592;52.178;4.512;2023-10-08T02:26:59;15.30;;;6.27;;
82030;SDS011;71592;52.178;4.512;2023-10-08T02:29:26;12.50;;;6.13;;
82030;SDS011;71592;52.178;4.512;2023-10-08T02:31:51;12.73;;;6.05;;
82030;SDS011;71592;52.178;4.512;2023-10-08T02:34:19;15.55;;;6.78;;
82030;SDS011;71592;52.178;4.512;2023-10-08T02:36:44;16.45;;;6.70;;
82030;SDS011;71592;52.178;4.512;2023-10-08T02:39:12;11.00;;;5.80;;
82030;SDS011;71592;52.178;4.512;2023-10-08T02:41:47;12.90;;;6.15;;
82030;SDS011;71592;52.178;4.512;2023-10-08T02:44:13;16.90;;;6.05;;
82030;SDS011;71592;52.178;4.512;2023-10-08T02:46:39;16.90;;;6.32;;
82030;SDS011;71592;52.178;4.512;2023-10-08T02:49:06;16.42;;;5.93;;
82030;SDS011;71592;52.178;4.512;2023-10-08T02:51:35;15.20;;;6.20;;
82030;SDS011;71592;52.178;4.512;2023-10-08T02:54:00;11.83;;;5.63;;
82030;SDS011;71592;52.178;4.512;2023-10-08T02:56:26;15.68;;;6.50;;
82030;SDS011;71592;52.178;4.512;2023-10-08T02:58:57;10.25;;;6.00;;
82030;SDS011;71592;52.178;4.512;2023-10-08T03:01:22;13.90;;;7.78;;
82030;SDS011;71592;52.178;4.512;2023-10-08T03:03:47;14.57;;;6.47;;
82030;SDS011;71592;52.178;4.512;2023-10-08T03:06:12;16.13;;;6.67;;
82030;SDS011;71592;52.178;4.512;2023-10-08T03:08:40;11.32;;;6.45;;
82030;SDS011;71592;52.178;4.512;2023-10-08T03:11:08;13.63;;;6.22;;
82030;SDS011;71592;52.178;4.512;2023-10-08T03:13:41;15.30;;;6.72;;
82030;SDS011;71592;52.178;4.512;2023-10-08T03:16:06;12.38;;;6.32;;
82030;SDS011;71592;52.178;4.512;2023-10-08T03:18:34;15.77;;;6.35;;
82030;SDS011;71592;52.178;4.512;2023-10-08T03:21:07;14.55;;;7.82;;
82030;SDS011;71592;52.178;4.512;2023-10-08T03:23:45;14.18;;;6.05;;
82030;SDS011;71592;52.178;4.512;2023-10-08T03:26:12;11.50;;;6.22;;
82030;SDS011;71592;52.178;4.512;2023-10-08T03:28:58;12.77;;;6.60;;
82030;SDS011;71592;52.178;4.512;2023-10-08T03:31:23;16.92;;;7.15;;
82030;SDS011;71592;52.178;4.512;2023-10-08T03:34:09;12.30;;;5.75;;
82030;SDS011;71592;52.178;4.512;2023-10-08T03:36:38;16.92;;;6.75;;
82030;SDS011;71592;52.178;4.512;2023-10-08T03:39:09;14.25;;;6.45;;
82030;SDS011;71592;52.178;4.512;2023-10-08T03:41:38;13.52;;;7.15;;
82030;SDS011;71592;52.178;4.512;2023-10-08T03:44:05;17.45;;;6.95;;
82030;SDS011;71592;52.178;4.512;2023-10-08T03:46:31;14.68;;;6.30;;
82030;SDS011;71592;52.178;4.512;2023-10-08T03:49:10;19.42;;;8.10;;
82030;SDS011;71592;52.178;4.512;2023-10-08T03:51:48;18.27;;;7.97;;
82030;SDS011;71592;52.178;4.512;2023-10-08T03:54:17;19.77;;;7.53;;
82030;SDS011;71592;52.178;4.512;2023-10-08T03:56:44;17.00;;;6.88;;
82030;SDS011;71592;52.178;4.512;2023-10-08T03:59:17;15.98;;;7.47;;
82030;SDS011;71592;52.178;4.512;2023-10-08T04:02:05;17.73;;;7.00;;
82030;SDS011;71592;52.178;4.512;2023-10-08T04:04:43;15.55;;;6.32;;
82030;SDS011;71592;52.178;4.512;2023-10-08T04:07:21;15.55;;;6.97;;
82030;SDS011;71592;52.178;4.512;2023-10-08T04:10:09;19.60;;;6.35;;
82030;SDS011;71592;52.178;4.512;2023-10-08T04:12:35;14.87;;;6.77;;
82030;SDS011;71592;52.178;4.512;2023-10-08T04:15:04;15.70;;;6.47;;
82030;SDS011;71592;52.178;4.512;2023-10-08T04:17:36;13.95;;;6.43;;
82030;SDS011;71592;52.178;4.512;2023-10-08T04:20:10;18.08;;;7.38;;
82030;SDS011;71592;52.178;4.512;2023-10-08T04:22:53;16.05;;;7.00;;
82030;SDS011;71592;52.178;4.512;2023-10-08T04:25:19;16.73;;;7.17;;
82030;SDS011;71592;52.178;4.512;2023-10-08T04:27:44;13.33;;;6.77;;
82030;SDS011;71592;52.178;4.512;2023-10-08T04:30:14;19.58;;;7.65;;
82030;SDS011;71592;52.178;4.512;2023-10-08T04:32:40;17.30;;;7.50;;
82030;SDS011;71592;52.178;4.512;2023-10-08T04:35:05;17.55;;;7.32;;
82030;SDS011;71592;52.178;4.512;2023-10-08T04:37:36;19.27;;;7.88;;
82030;SDS011;71592;52.178;4.512;2023-10-08T04:40:05;21.35;;;7.57;;
82030;SDS011;71592;52.178;4.512;2023-10-08T04:42:31;12.90;;;6.28;;
82030;SDS011;71592;52.178;4.512;2023-10-08T04:44:56;13.23;;;6.43;;
82030;SDS011;71592;52.178;4.512;2023-10-08T04:47:23;9.30;;;5.07;;
82030;SDS011;71592;52.178;4.512;2023-10-08T04:49:59;12.38;;;5.95;;
82030;SDS011;71592;52.178;4.512;2023-10-08T04:52:24;12.83;;;5.13;;
82030;SDS011;71592;52.178;4.512;2023-10-08T04:54:52;13.10;;;5.05;;
82030;SDS011;71592;52.178;4.512;2023-10-08T04:57:19;14.05;;;5.38;;
82030;SDS011;71592;52.178;4.512;2023-10-08T04:59:47;10.38;;;4.43;;
82030;SDS011;71592;52.178;4.512;2023-10-08T05:02:15;16.33;;;5.38;;
82030;SDS011;71592;52.178;4.512;2023-10-08T05:05:13;9.73;;;5.10;;
82030;SDS011;71592;52.178;4.512;2023-10-08T05:07:47;9.05;;;4.40;;
82030;SDS011;71592;52.178;4.512;2023-10-08T05:10:13;10.57;;;4.35;;
82030;SDS011;71592;52.178;4.512;2023-10-08T05:12:51;6.93;;;4.38;;
82030;SDS011;71592;52.178;4.512;2023-10-08T05:18:07;10.05;;;3.50;;
82030;SDS011;71592;52.178;4.512;2023-10-08T05:20:44;10.05;;;3.88;;
82030;SDS011;71592;52.178;4.512;2023-10-08T05:23:16;6.68;;;3.00;;
82030;SDS011;71592;52.178;4.512;2023-10-08T05:25:54;9.13;;;2.85;;
82030;SDS011;71592;52.178;4.512;2023-10-08T05:28:40;5.40;;;3.00;;
82030;SDS011;71592;52.178;4.512;2023-10-08T05:31:24;6.85;;;2.95;;
82030;SDS011;71592;52.178;4.512;2023-10-08T05:34:09;6.03;;;2.90;;
82030;SDS011;71592;52.178;4.512;2023-10-08T05:36:58;9.38;;;2.65;;
82030;SDS011;71592;52.178;4.512;2023-10-08T05:39:29;4.95;;;2.60;;
82030;SDS011;71592;52.178;4.512;2023-10-08T05:42:05;4.28;;;2.42;;
82030;SDS011;71592;52.178;4.512;2023-10-08T05:44:45;7.32;;;2.92;;
82030;SDS011;71592;52.178;4.512;2023-10-08T05:47:14;6.07;;;2.28;;
82030;SDS011;71592;52.178;4.512;2023-10-08T05:50:01;7.32;;;2.65;;
82030;SDS011;71592;52.178;4.512;2023-10-08T05:52:42;6.53;;;2.20;;
82030;SDS011;71592;52.178;4.512;2023-10-08T05:55:22;6.32;;;2.50;;
82030;SDS011;71592;52.178;4.512;2023-10-08T05:57:52;8.13;;;3.13;;
82030;SDS011;71592;52.178;4.512;2023-10-08T06:00:27;6.85;;;3.40;;
82030;SDS011;71592;52.178;4.512;2023-10-08T06:03:11;5.93;;;3.08;;
82030;SDS011;71592;52.178;4.512;2023-10-08T06:05:57;5.60;;;3.00;;
82030;SDS011;71592;52.178;4.512;2023-10-08T06:08:51;7.50;;;3.47;;
82030;SDS011;71592;52.178;4.512;2023-10-08T06:11:52;6.32;;;3.33;;
82030;SDS011;71592;52.178;4.512;2023-10-08T06:14:34;6.20;;;3.40;;
82030;SDS011;71592;52.178;4.512;2023-10-08T06:17:31;6.68;;;3.78;;
82030;SDS011;71592;52.178;4.512;2023-10-08T06:20:10;8.80;;;4.18;;
82030;SDS011;71592;52.178;4.512;2023-10-08T06:22:36;8.35;;;4.63;;
82030;SDS011;71592;52.178;4.512;2023-10-08T06:25:01;11.45;;;6.00;;
82030;SDS011;71592;52.178;4.512;2023-10-08T06:27:42;15.60;;;6.57;;
82030;SDS011;71592;52.178;4.512;2023-10-08T06:30:10;10.65;;;6.53;;
82030;SDS011;71592;52.178;4.512;2023-10-08T06:32:41;14.63;;;6.28;;
82030;SDS011;71592;52.178;4.512;2023-10-08T06:35:06;11.57;;;5.78;;
82030;SDS011;71592;52.178;4.512;2023-10-08T06:37:32;14.25;;;6.13;;
82030;SDS011;71592;52.178;4.512;2023-10-08T06:39:59;10.23;;;5.18;;
82030;SDS011;71592;52.178;4.512;2023-10-08T06:42:25;12.67;;;5.13;;
82030;SDS011;71592;52.178;4.512;2023-10-08T06:44:52;10.25;;;4.65;;
82030;SDS011;71592;52.178;4.512;2023-10-08T06:47:18;9.23;;;4.97;;
82030;SDS011;71592;52.178;4.512;2023-10-08T06:49:43;9.07;;;4.72;;
82030;SDS011;71592;52.178;4.512;2023-10-08T06:52:09;11.57;;;6.10;;
82030;SDS011;71592;52.178;4.512;2023-10-08T06:54:36;7.60;;;4.30;;
82030;SDS011;71592;52.178;4.512;2023-10-08T06:57:01;10.53;;;4.30;;
82030;SDS011;71592;52.178;4.512;2023-10-08T06:59:27;7.55;;;3.95;;
82030;SDS011;71592;52.178;4.512;2023-10-08T07:01:56;7.95;;;2.95;;
82030;SDS011;71592;52.178;4.512;2023-10-08T07:04:24;9.07;;;3.50;;
82030;SDS011;71592;52.178;4.512;2023-10-08T07:06:49;9.07;;;3.33;;
82030;SDS011;71592;52.178;4.512;2023-10-08T07:09:17;8.50;;;3.45;;
82030;SDS011;71592;52.178;4.512;2023-10-08T07:11:57;8.38;;;3.15;;
82030;SDS011;71592;52.178;4.512;2023-10-08T07:14:26;6.15;;;3.05;;
82030;SDS011;71592;52.178;4.512;2023-10-08T07:16:55;8.30;;;3.78;;
82030;SDS011;71592;52.178;4.512;2023-10-08T07:19:23;7.50;;;3.72;;
82030;SDS011;71592;52.178;4.512;2023-10-08T07:21:53;7.55;;;3.58;;
82030;SDS011;71592;52.178;4.512;2023-10-08T07:24:31;10.38;;;3.67;;
82030;SDS011;71592;52.178;4.512;2023-10-08T07:27:00;6.82;;;3.72;;
82030;SDS011;71592;52.178;4.512;2023-10-08T07:29:27;8.23;;;4.60;;
82030;SDS011;71592;52.178;4.512;2023-10-08T07:31:55;10.73;;;4.30;;
82030;SDS011;71592;52.178;4.512;2023-10-08T07:34:21;9.48;;;3.83;;
82030;SDS011;71592;52.178;4.512;2023-10-08T07:36:49;8.40;;;3.40;;
82030;SDS011;71592;52.178;4.512;2023-10-08T07:39:18;10.13;;;3.42;;
82030;SDS011;71592;52.178;4.512;2023-10-08T07:41:49;8.85;;;3.65;;
82030;SDS011;71592;52.178;4.512;2023-10-08T07:44:15;7.43;;;3.55;;
82030;SDS011;71592;52.178;4.512;2023-10-08T07:46:40;9.55;;;3.55;;
82030;SDS011;71592;52.178;4.512;2023-10-08T07:49:05;9.20;;;4.20;;
82030;SDS011;71592;52.178;4.512;2023-10-08T07:51:31;7.37;;;3.33;;
82030;SDS011;71592;52.178;4.512;2023-10-08T07:53:56;9.18;;;3.17;;
82030;SDS011;71592;52.178;4.512;2023-10-08T07:56:22;8.30;;;3.20;;
82030;SDS011;71592;52.178;4.512;2023-10-08T07:58:48;11.20;;;3.67;;
82030;SDS011;71592;52.178;4.512;2023-10-08T08:01:14;8.35;;;3.67;;
82030;SDS011;71592;52.178;4.512;2023-10-08T08:03:40;8.90;;;3.23;;
82030;SDS011;71592;52.178;4.512;2023-10-08T08:06:06;8.05;;;3.08;;
82030;SDS011;71592;52.178;4.512;2023-10-08T08:08:35;9.02;;;3.42;;
82030;SDS011;71592;52.178;4.512;2023-10-08T08:11:01;7.55;;;3.72;;
82030;SDS011;71592;52.178;4.512;2023-10-08T08:13:37;9.18;;;3.28;;
82030;SDS011;71592;52.178;4.512;2023-10-08T08:16:02;5.35;;;2.42;;
82030;SDS011;71592;52.178;4.512;2023-10-08T08:18:44;6.70;;;2.58;;
82030;SDS011;71592;52.178;4.512;2023-10-08T08:21:10;6.43;;;2.67;;
82030;SDS011;71592;52.178;4.512;2023-10-08T08:23:40;6.55;;;2.63;;
82030;SDS011;71592;52.178;4.512;2023-10-08T08:26:05;7.88;;;2.97;;
82030;SDS011;71592;52.178;4.512;2023-10-08T08:28:51;4.88;;;2.38;;
82030;SDS011;71592;52.178;4.512;2023-10-08T08:31:16;4.87;;;2.50;;
82030;SDS011;71592;52.178;4.512;2023-10-08T08:33:44;6.68;;;3.53;;
82030;SDS011;71592;52.178;4.512;2023-10-08T08:36:21;4.55;;;2.47;;
82030;SDS011;71592;52.178;4.512;2023-10-08T08:38:46;6.28;;;2.25;;
82030;SDS011;71592;52.178;4.512;2023-10-08T08:41:12;6.07;;;3.22;;
82030;SDS011;71592;52.178;4.512;2023-10-08T08:43:38;4.57;;;2.10;;
82030;SDS011;71592;52.178;4.512;2023-10-08T08:46:09;4.85;;;2.15;;
82030;SDS011;71592;52.178;4.512;2023-10-08T08:48:39;4.13;;;1.90;;
82030;SDS011;71592;52.178;4.512;2023-10-08T08:51:05;4.05;;;2.10;;
82030;SDS011;71592;52.178;4.512;2023-10-08T08:53:32;2.63;;;1.65;;
82030;SDS011;71592;52.178;4.512;2023-10-08T08:55:58;4.00;;;1.83;;
82030;SDS011;71592;52.178;4.512;2023-10-08T08:58:25;3.85;;;1.95;;
82030;SDS011;71592;52.178;4.512;2023-10-08T09:00:50;2.80;;;1.50;;
82030;SDS011;71592;52.178;4.512;2023-10-08T09:03:17;3.53;;;1.45;;
82030;SDS011;71592;52.178;4.512;2023-10-08T09:05:44;2.75;;;1.50;;
82030;SDS011;71592;52.178;4.512;2023-10-08T09:08:14;4.60;;;1.52;;
82030;SDS011;71592;52.178;4.512;2023-10-08T09:10:43;2.45;;;1.58;;
82030;SDS011;71592;52.178;4.512;2023-10-08T09:13:19;3.88;;;1.30;;
82030;SDS011;71592;52.178;4.512;2023-10-08T09:15:46;3.28;;;1.50;;
82030;SDS011;71592;52.178;4.512;2023-10-08T09:18:11;2.90;;;1.85;;
82030;SDS011;71592;52.178;4.512;2023-10-08T09:20:39;2.35;;;1.63;;
82030;SDS011;71592;52.178;4.512;2023-10-08T09:23:11;2.33;;;1.60;;
82030;SDS011;71592;52.178;4.512;2023-10-08T09:25:40;3.13;;;1.35;;
82030;SDS011;71592;52.178;4.512;2023-10-08T09:28:06;4.45;;;2.13;;
82030;SDS011;71592;52.178;4.512;2023-10-08T09:30:33;3.97;;;2.00;;
82030;SDS011;71592;52.178;4.512;2023-10-08T09:33:03;3.75;;;2.17;;
82030;SDS011;71592;52.178;4.512;2023-10-08T09:35:29;5.28;;;2.78;;
82030;SDS011;71592;52.178;4.512;2023-10-08T09:37:55;3.20;;;2.00;;
82030;SDS011;71592;52.178;4.512;2023-10-08T09:40:20;4.83;;;2.20;;
82030;SDS011;71592;52.178;4.512;2023-10-08T09:42:46;3.40;;;2.08;;
82030;SDS011;71592;52.178;4.512;2023-10-08T09:45:13;4.43;;;2.28;;
82030;SDS011;71592;52.178;4.512;2023-10-08T09:47:38;3.13;;;1.95;;
82030;SDS011;71592;52.178;4.512;2023-10-08T09:50:07;3.67;;;2.45;;
82030;SDS011;71592;52.178;4.512;2023-10-08T09:52:39;4.03;;;2.10;;
82030;SDS011;71592;52.178;4.512;2023-10-08T09:55:08;4.45;;;2.28;;
82030;SDS011;71592;52.178;4.512;2023-10-08T09:57:35;4.50;;;2.20;;
82030;SDS011;71592;52.178;4.512;2023-10-08T10:00:01;5.05;;;2.67;;
82030;SDS011;71592;52.178;4.512;2023-10-08T10:02:31;3.45;;;2.28;;
82030;SDS011;71592;52.178;4.512;2023-10-08T10:04:58;5.63;;;2.60;;
82030;SDS011;71592;52.178;4.512;2023-10-08T10:07:25;3.50;;;2.28;;
82030;SDS011;71592;52.178;4.512;2023-10-08T10:09:51;4.85;;;2.33;;
82030;SDS011;71592;52.178;4.512;2023-10-08T10:12:27;5.00;;;2.60;;
82030;SDS011;71592;52.178;4.512;2023-10-08T10:14:56;5.97;;;2.40;;
82030;SDS011;71592;52.178;4.512;2023-10-08T10:17:25;5.50;;;2.60;;
82030;SDS011;71592;52.178;4.512;2023-10-08T10:19:56;5.05;;;2.78;;
82030;SDS011;71592;52.178;4.512;2023-10-08T10:22:28;5.50;;;2.95;;
82030;SDS011;71592;52.178;4.512;2023-10-08T10:24:54;5.38;;;3.03;;
82030;SDS011;71592;52.178;4.512;2023-10-08T10:27:19;5.38;;;2.90;;
82030;SDS011;71592;52.178;4.512;2023-10-08T10:29:45;5.88;;;2.60;;
82030;SDS011;71592;52.178;4.512;2023-10-08T10:32:13;4.47;;;2.53;;
82030;SDS011;71592;52.178;4.512;2023-10-08T10:34:40;4.93;;;2.88;;
82030;SDS011;71592;52.178;4.512;2023-10-08T10:37:05;6.20;;;2.80;;
82030;SDS011;71592;52.178;4.512;2023-10-08T10:39:35;4.63;;;2.65;;
82030;SDS011;71592;52.178;4.512;2023-10-08T10:42:05;5.47;;;2.70;;
82030;SDS011;71592;52.178;4.512;2023-10-08T10:44:31;6.25;;;3.08;;
82030;SDS011;71592;52.178;4.512;2023-10-08T10:46:58;4.57;;;2.80;;
82030;SDS011;71592;52.178;4.512;2023-10-08T10:49:42;6.35;;;2.80;;
82030;SDS011;71592;52.178;4.512;2023-10-08T10:52:16;8.20;;;3.22;;
82030;SDS011;71592;52.178;4.512;2023-10-08T10:54:51;5.28;;;2.42;;
82030;SDS011;71592;52.178;4.512;2023-10-08T10:57:24;6.57;;;2.72;;
82030;SDS011;71592;52.178;4.512;2023-10-08T10:59:52;5.43;;;2.78;;
82030;SDS011;71592;52.178;4.512;2023-10-08T11:02:20;5.72;;;2.80;;
82030;SDS011;71592;52.178;4.512;2023-10-08T11:04:56;7.13;;;3.40;;
82030;SDS011;71592;52.178;4.512;2023-10-08T11:07:26;8.05;;;3.90;;
82030;SDS011;71592;52.178;4.512;2023-10-08T11:09:51;7.10;;;3.45;;
82030;SDS011;71592;52.178;4.512;2023-10-08T11:12:17;5.55;;;3.50;;
82030;SDS011;71592;52.178;4.512;2023-10-08T11:14:48;8.35;;;3.75;;
82030;SDS011;71592;52.178;4.512;2023-10-08T11:17:16;7.13;;;4.18;;
82030;SDS011;71592;52.178;4.512;2023-10-08T11:19:44;9.38;;;4.25;;
82030;SDS011;71592;52.178;4.512;2023-10-08T11:22:13;7.03;;;3.90;;
82030;SDS011;71592;52.178;4.512;2023-10-08T11:24:41;7.40;;;4.30;;
82030;SDS011;71592;52.178;4.512;2023-10-08T11:27:08;7.43;;;4.05;;
82030;SDS011;71592;52.178;4.512;2023-10-08T11:29:49;6.63;;;4.30;;
82030;SDS011;71592;52.178;4.512;2023-10-08T11:32:22;8.00;;;4.38;;
82030;SDS011;71592;52.178;4.512;2023-10-08T11:34:54;9.57;;;3.92;;
82030;SDS011;71592;52.178;4.512;2023-10-08T11:37:26;8.63;;;4.35;;
82030;SDS011;71592;52.178;4.512;2023-10-08T11:39:51;6.32;;;3.63;;
82030;SDS011;71592;52.178;4.512;2023-10-08T11:42:18;7.55;;;4.32;;
82030;SDS011;71592;52.178;4.512;2023-10-08T11:44:58;7.47;;;4.45;;
82030;SDS011;71592;52.178;4.512;2023-10-08T11:47:27;6.78;;;4.00;;
82030;SDS011;71592;52.178;4.512;2023-10-08T11:50:00;7.68;;;3.85;;
82030;SDS011;71592;52.178;4.512;2023-10-08T11:52:35;6.10;;;3.60;;
82030;SDS011;71592;52.178;4.512;2023-10-08T11:55:06;7.65;;;3.65;;
82030;SDS011;71592;52.178;4.512;2023-10-08T11:57:31;7.55;;;3.85;;
82030;SDS011;71592;52.178;4.512;2023-10-08T12:00:00;6.65;;;3.83;;
82030;SDS011;71592;52.178;4.512;2023-10-08T12:02:26;9.85;;;4.15;;
82030;SDS011;71592;52.178;4.512;2023-10-08T12:04:51;10.23;;;4.45;;
82030;SDS011;71592;52.178;4.512;2023-10-08T12:07:17;9.13;;;4.63;;
82030;SDS011;71592;52.178;4.512;2023-10-08T12:09:43;8.45;;;4.28;;
82030;SDS011;71592;52.178;4.512;2023-10-08T12:12:08;7.13;;;3.60;;
82030;SDS011;71592;52.178;4.512;2023-10-08T12:14:34;8.48;;;4.80;;
82030;SDS011;71592;52.178;4.512;2023-10-08T12:17:00;8.60;;;4.00;;
82030;SDS011;71592;52.178;4.512;2023-10-08T12:19:25;8.52;;;4.80;;
82030;SDS011;71592;52.178;4.512;2023-10-08T12:21:51;7.05;;;4.25;;
82030;SDS011;71592;52.178;4.512;2023-10-08T12:24:18;9.98;;;4.93;;
82030;SDS011;71592;52.178;4.512;2023-10-08T12:26:45;9.85;;;4.90;;
82030;SDS011;71592;52.178;4.512;2023-10-08T12:29:14;9.52;;;4.53;;
82030;SDS011;71592;52.178;4.512;2023-10-08T12:31:42;8.75;;;4.55;;
82030;SDS011;71592;52.178;4.512;2023-10-08T12:34:07;10.90;;;4.00;;
82030;SDS011;71592;52.178;4.512;2023-10-08T12:36:36;9.27;;;4.38;;
82030;SDS011;71592;52.178;4.512;2023-10-08T12:39:02;10.07;;;5.27;;
82030;SDS011;71592;52.178;4.512;2023-10-08T12:41:43;9.90;;;5.35;;
82030;SDS011;71592;52.178;4.512;2023-10-08T12:44:12;9.73;;;4.60;;
82030;SDS011;71592;52.178;4.512;2023-10-08T12:46:37;9.73;;;5.10;;
82030;SDS011;71592;52.178;4.512;2023-10-08T12:49:03;8.98;;;4.85;;
82030;SDS011;71592;52.178;4.512;2023-10-08T12:51:29;9.65;;;5.10;;
82030;SDS011;71592;52.178;4.512;2023-10-08T12:53:58;9.90;;;4.97;;
82030;SDS011;71592;52.178;4.512;2023-10-08T12:56:24;8.20;;;4.60;;
82030;SDS011;71592;52.178;4.512;2023-10-08T12:58:57;8.50;;;4.65;;
82030;SDS011;71592;52.178;4.512;2023-10-08T13:01:22;7.63;;;4.80;;
82030;SDS011;71592;52.178;4.512;2023-10-08T13:03:47;9.03;;;5.13;;
82030;SDS011;71592;52.178;4.512;2023-10-08T13:06:13;9.30;;;5.20;;
82030;SDS011;71592;52.178;4.512;2023-10-08T13:08:48;9.20;;;4.63;;
82030;SDS011;71592;52.178;4.512;2023-10-08T13:11:14;10.63;;;5.63;;
82030;SDS011;71592;52.178;4.512;2023-10-08T13:13:39;8.17;;;4.60;;
82030;SDS011;71592;52.178;4.512;2023-10-08T13:16:04;10.13;;;4.87;;
82030;SDS011;71592;52.178;4.512;2023-10-08T13:18:33;8.70;;;4.45;;
82030;SDS011;71592;52.178;4.512;2023-10-08T13:20:58;10.93;;;5.13;;
82030;SDS011;71592;52.178;4.512;2023-10-08T13:23:24;8.07;;;4.80;;
82030;SDS011;71592;52.178;4.512;2023-10-08T13:25:49;12.15;;;6.35;;
82030;SDS011;71592;52.178;4.512;2023-10-08T13:28:21;13.13;;;6.45;;
82030;SDS011;71592;52.178;4.512;2023-10-08T13:30:48;10.88;;;6.15;;
82030;SDS011;71592;52.178;4.512;2023-10-08T13:33:17;13.63;;;6.47;;
82030;SDS011;71592;52.178;4.512;2023-10-08T13:35:43;10.85;;;6.00;;
82030;SDS011;71592;52.178;4.512;2023-10-08T13:38:08;10.55;;;5.57;;
82030;SDS011;71592;52.178;4.512;2023-10-08T13:40:35;10.20;;;5.82;;
82030;SDS011;71592;52.178;4.512;2023-10-08T13:43:05;13.85;;;6.40;;
82030;SDS011;71592;52.178;4.512;2023-10-08T13:45:30;10.20;;;6.40;;
82030;SDS011;71592;52.178;4.512;2023-10-08T13:47:57;11.23;;;5.78;;
82030;SDS011;71592;52.178;4.512;2023-10-08T13:50:24;11.20;;;5.90;;
82030;SDS011;71592;52.178;4.512;2023-10-08T13:52:50;12.60;;;6.82;;
82030;SDS011;71592;52.178;4.512;2023-10-08T13:55:15;11.43;;;6.00;;
82030;SDS011;71592;52.178;4.512;2023-10-08T13:57:44;12.82;;;6.13;;
82030;SDS011;71592;52.178;4.512;2023-10-08T14:00:11;11.55;;;5.95;;
82030;SDS011;71592;52.178;4.512;2023-10-08T14:02:43;11.55;;;5.88;;
82030;SDS011;71592;52.178;4.512;2023-10-08T14:05:16;12.77;;;7.10;;
82030;SDS011;71592;52.178;4.512;2023-10-08T14:07:42;11.68;;;6.40;;
82030;SDS011;71592;52.178;4.512;2023-10-08T14:10:09;14.95;;;7.13;;
82030;SDS011;71592;52.178;4.512;2023-10-08T14:12:43;11.40;;;6.63;;
82030;SDS011;71592;52.178;4.512;2023-10-08T14:15:08;12.38;;;7.53;;
82030;SDS011;71592;52.178;4.512;2023-10-08T14:17:39;13.23;;;7.13;;
82030;SDS011;71592;52.178;4.512;2023-10-08T14:20:07;13.82;;;7.45;;
82030;SDS011;71592;52.178;4.512;2023-10-08T14:22:38;13.43;;;8.02;;
82030;SDS011;71592;52.178;4.512;2023-10-08T14:25:03;16.67;;;7.47;;
82030;SDS011;71592;52.178;4.512;2023-10-08T14:27:36;15.77;;;7.30;;
82030;SDS011;71592;52.178;4.512;2023-10-08T14:30:07;15.00;;;7.85;;
82030;SDS011;71592;52.178;4.512;2023-10-08T14:32:40;13.75;;;6.85;;
82030;SDS011;71592;52.178;4.512;2023-10-08T14:35:10;14.80;;;7.93;;
82030;SDS011;71592;52.178;4.512;2023-10-08T14:37:53;15.50;;;7.35;;
82030;SDS011;71592;52.178;4.512;2023-10-08T14:40:37;18.00;;;8.10;;
82030;SDS011;71592;52.178;4.512;2023-10-08T14:43:21;12.70;;;7.35;;
82030;SDS011;71592;52.178;4.512;2023-10-08T14:45:49;13.88;;;7.90;;
82030;SDS011;71592;52.178;4.512;2023-10-08T14:48:14;17.63;;;9.05;;
82030;SDS011;71592;52.178;4.512;2023-10-08T14:50:39;16.97;;;8.90;;
82030;SDS011;71592;52.178;4.512;2023-10-08T14:53:05;17.67;;;8.48;;
82030;SDS011;71592;52.178;4.512;2023-10-08T14:55:31;15.27;;;8.40;;
82030;SDS011;71592;52.178;4.512;2023-10-08T14:57:59;18.42;;;9.75;;
82030;SDS011;71592;52.178;4.512;2023-10-08T15:00:31;15.27;;;7.88;;